createdAt,value
2024-05-09T00:02:20.639Z,67.17
2024-05-09T00:05:29.559Z,67.65
2024-05-09T00:08:35.243Z,68.97
2024-05-09T00:11:41.469Z,68.62
2024-05-09T00:14:47.318Z,68.45
2024-05-09T00:17:53.852Z,68.20
2024-05-09T00:21:02.665Z,68.18
2024-05-09T00:24:09.237Z,68.70
2024-05-09T00:27:14.962Z,68.22
2024-05-09T00:30:28.218Z,72.48
2024-05-09T00:33:39.539Z,70.92
2024-05-09T00:36:48.302Z,71.76
2024-05-09T00:39:53.869Z,71.20
2024-05-09T00:42:59.870Z,72.06
2024-05-09T00:46:05.870Z,71.89
2024-05-09T00:49:12.593Z,71.48
2024-05-09T00:52:21.054Z,74.25
2024-05-09T00:55:27.616Z,74.48
2024-05-09T00:58:33.538Z,74.49
2024-05-09T01:01:39.933Z,74.36
2024-05-09T01:04:45.746Z,76.40
2024-05-09T01:07:54.603Z,76.55
2024-05-09T01:11:00.320Z,75.97
2024-05-09T01:14:06.531Z,77.22
2024-05-09T01:17:12.286Z,76.51
2024-05-09T01:20:22.924Z,77.10
2024-05-09T01:23:36.237Z,76.56
2024-05-09T01:26:42.571Z,77.94
2024-05-09T01:29:48.210Z,77.55
2024-05-09T01:32:54.523Z,78.39
2024-05-09T01:36:00.285Z,78.84
2024-05-09T01:39:10.172Z,79.41
2024-05-09T01:42:16.594Z,79.65
2024-05-09T01:45:22.656Z,80.00
2024-05-09T01:48:28.352Z,80.30
2024-05-09T01:51:34.477Z,80.68
2024-05-09T01:54:42.900Z,80.73
2024-05-09T01:57:49.055Z,80.30
2024-05-09T02:00:56.260Z,81.30
2024-05-09T02:04:02.735Z,82.87
2024-05-09T02:07:08.871Z,82.62
2024-05-09T02:10:23.498Z,82.01
2024-05-09T02:13:35.864Z,81.56
2024-05-09T02:16:42.028Z,81.74
2024-05-09T02:19:47.733Z,80.62
2024-05-09T02:22:54.092Z,79.91
2024-05-09T02:26:02.473Z,79.35
2024-05-09T02:29:08.536Z,79.14
2024-05-09T02:32:14.841Z,78.56
2024-05-09T02:35:21.051Z,78.00
2024-05-09T02:38:27.141Z,77.48
2024-05-09T02:41:33.397Z,77.21
2024-05-09T02:44:39.066Z,76.88
2024-05-09T02:47:42.534Z,76.68
2024-05-09T02:50:48.239Z,76.75
2024-05-09T02:53:51.673Z,76.45
2024-05-09T02:56:59.979Z,76.12
2024-05-09T03:00:03.688Z,77.09
2024-05-09T03:03:14.063Z,76.32
2024-05-09T03:06:19.972Z,76.02
2024-05-09T03:09:26.755Z,74.96
2024-05-09T03:12:33.613Z,74.86
2024-05-09T03:15:40.208Z,74.82
2024-05-09T03:18:46.578Z,74.30
2024-05-09T03:21:49.604Z,73.96
2024-05-09T03:24:55.633Z,73.81
2024-05-09T03:28:01.358Z,73.37
2024-05-09T03:31:08.063Z,73.42
2024-05-09T03:34:14.013Z,72.87
2024-05-09T03:37:20.014Z,72.54
2024-05-09T03:40:28.988Z,72.30
2024-05-09T03:43:39.324Z,72.24
2024-05-09T03:46:44.981Z,72.07
2024-05-09T03:49:48.391Z,71.62
2024-05-09T03:52:55.181Z,71.81
2024-05-09T03:55:58.611Z,71.87
2024-05-09T03:59:06.979Z,72.82
2024-05-09T04:02:13.154Z,72.63
2024-05-09T04:05:16.732Z,72.69
2024-05-09T04:08:53.905Z,73.54
2024-05-09T04:12:23.905Z,73.54
2024-05-09T04:15:29.998Z,73.75
2024-05-09T04:18:36.177Z,74.10
2024-05-09T04:21:39.160Z,73.75
2024-05-09T04:24:45.379Z,73.52
2024-05-09T04:27:48.347Z,73.46
2024-05-09T04:30:57.160Z,73.32
2024-05-09T04:34:00.284Z,74.03
2024-05-09T04:37:07.239Z,74.25
2024-05-09T04:40:20.518Z,74.75
2024-05-09T04:43:30.272Z,75.98
2024-05-09T04:46:35.938Z,76.13
2024-05-09T04:49:45.355Z,76.71
2024-05-09T04:52:48.421Z,77.52
2024-05-09T04:55:54.435Z,77.58
2024-05-09T04:59:00.056Z,78.29
2024-05-09T05:02:06.123Z,78.69
2024-05-09T05:05:12.183Z,78.95
2024-05-09T05:08:19.599Z,80.41
2024-05-09T05:11:25.501Z,80.42
2024-05-09T05:14:29.109Z,80.73
2024-05-09T05:17:37.699Z,80.95
2024-05-09T05:20:41.676Z,80.63
2024-05-09T05:23:47.351Z,80.58
2024-05-09T05:26:50.711Z,80.05
2024-05-09T05:29:56.252Z,80.07
2024-05-09T05:33:05.220Z,79.95
2024-05-09T05:36:11.050Z,79.11
2024-05-09T05:39:17.096Z,78.29
2024-05-09T05:42:20.051Z,77.88
2024-05-09T05:45:26.073Z,77.63
2024-05-09T05:48:34.944Z,76.91
2024-05-09T05:51:38.357Z,76.97
2024-05-09T05:54:43.904Z,76.91
2024-05-09T05:57:49.991Z,76.91
2024-05-09T06:00:53.880Z,78.14
2024-05-09T06:04:02.726Z,77.82
2024-05-09T06:07:05.890Z,76.80
2024-05-09T06:10:17.588Z,75.91
2024-05-09T06:13:24.703Z,75.75
2024-05-09T06:16:30.787Z,75.18
2024-05-09T06:19:36.520Z,74.78
2024-05-09T06:22:42.643Z,74.72
2024-05-09T06:25:46.108Z,75.16
2024-05-09T06:28:52.292Z,74.71
2024-05-09T06:31:57.109Z,74.81
2024-05-09T06:35:08.849Z,75.12
2024-05-09T06:38:12.236Z,74.69
2024-05-09T06:41:18.674Z,75.06
2024-05-09T06:44:24.373Z,75.16
2024-05-09T06:47:27.985Z,74.45
2024-05-09T06:50:38.437Z,74.02
2024-05-09T06:53:43.004Z,73.54
2024-05-09T06:56:48.678Z,73.88
2024-05-09T06:59:52.415Z,72.91
2024-05-09T07:03:00.110Z,73.10
2024-05-09T07:06:10.559Z,73.06
2024-05-09T07:09:13.862Z,72.27
2024-05-09T07:12:20.070Z,71.53
2024-05-09T07:15:23.237Z,70.90
2024-05-09T07:18:29.900Z,70.38
2024-05-09T07:21:35.671Z,71.34
2024-05-09T07:24:41.792Z,71.25
2024-05-09T07:27:47.035Z,71.52
2024-05-09T07:30:53.350Z,72.48
2024-05-09T07:33:56.287Z,72.80
2024-05-09T07:37:06.299Z,72.65
2024-05-09T07:40:12.081Z,72.29
2024-05-09T07:43:23.713Z,72.44
2024-05-09T07:47:20.779Z,72.25
2024-05-09T07:51:32.820Z,72.48
2024-05-09T07:53:38.726Z,73.57
2024-05-09T07:56:47.113Z,72.76
2024-05-09T07:59:50.144Z,72.81
2024-05-09T08:02:56.391Z,73.07
2024-05-09T08:05:59.306Z,72.24
2024-05-09T08:09:13.591Z,72.78
2024-05-09T08:12:19.953Z,71.91
2024-05-09T08:15:33.292Z,71.28
2024-05-09T08:18:41.478Z,72.00
2024-05-09T08:21:48.691Z,71.77
2024-05-09T08:24:54.742Z,71.88
2024-05-09T08:28:00.518Z,72.59
2024-05-09T08:31:06.865Z,73.29
2024-05-09T08:34:13.057Z,71.24
2024-05-09T08:37:22.317Z,71.67
2024-05-09T08:40:36.316Z,70.88
2024-05-09T08:43:44.599Z,71.89
2024-05-09T08:46:48.272Z,70.73
2024-05-09T08:49:58.505Z,71.06
2024-05-09T08:53:04.379Z,70.12
2024-05-09T08:56:12.196Z,70.33
2024-05-09T08:59:23.812Z,70.83
2024-05-09T09:02:30.747Z,70.18
2024-05-09T09:05:37.272Z,70.25
2024-05-09T09:08:43.800Z,69.04
2024-05-09T09:11:52.123Z,68.43
2024-05-09T09:14:55.583Z,68.45
2024-05-09T09:18:01.979Z,68.19
2024-05-09T09:21:10.222Z,68.78
2024-05-09T09:24:22.738Z,69.59
2024-05-09T09:27:37.472Z,69.88
2024-05-09T09:30:41.642Z,69.51
2024-05-09T09:33:47.982Z,69.53
2024-05-09T09:36:56.110Z,69.56
2024-05-09T09:40:02.600Z,69.41
2024-05-09T09:43:14.557Z,68.97
2024-05-09T09:46:22.850Z,68.14
2024-05-09T09:49:26.576Z,66.99
2024-05-09T09:52:33.007Z,67.02
2024-05-09T09:55:37.503Z,66.59
2024-05-09T09:58:48.380Z,66.36
2024-05-09T10:01:51.656Z,66.50
2024-05-09T10:04:58.099Z,67.03
2024-05-09T10:08:05.427Z,67.54
2024-05-09T10:11:11.569Z,67.35
2024-05-09T10:14:20.890Z,67.04
2024-05-09T10:17:27.783Z,67.19
